To NAV CANADA Home Page Login to a new session Search on AWWS site Feedback and Comments Disclaimer Vers la page française équivalente Tips FAQ What's new on the site To the Forecasts and Observations / NOTAM section To "File a Flight Plan" website Publications and other links Update of the User's profile FIC Telephone Numbers My Weather Data Folder Route Weather Data Regional Weather Data Local Weather Data To the Forecasts and Observations / NOTAM section
Request Generated 10/17/2017 at 01:43:32 UTC . Weather information available at that time is displayed.

METAR/TAF

HAVRE ST-PIERRE/QC    (show WxCam)

METAR CYGV 170100Z AUTO 01007KT 9SM OVC049 04/M03 A2995 RMK SLP145=
METAR CYGV 170000Z AUTO 36005KT 9SM OVC047 04/M03 A2994 RMK SLP142=
METAR CYGV 162300Z AUTO 36007KT 9SM OVC045 04/M03 A2992 RMK SLP136=

TAF CYGV 170138Z 1702/1714 01007KT P6SM OVC050
FM170800 30005KT P6SM SCT040
FM171300 33010KT P6SM SKC
RMK FCST BASED ON AUTO OBS. NXT FCST BY 170800Z=
Your time UTC time
Weather data provided by Environment Canada and NAV CANADA